sensor_id;sensor_type;location;lat;lon;timestamp;P1;durP1;ratioP1;P2;durP2;ratioP2
43861;SDS011;29510;52.140;5.034;2024-03-08T00:05:50;35.83;;;17.60;;
43861;SDS011;29510;52.140;5.034;2024-03-08T00:15:50;37.45;;;16.95;;
43861;SDS011;29510;52.140;5.034;2024-03-08T00:25:51;33.78;;;16.95;;
43861;SDS011;29510;52.140;5.034;2024-03-08T00:35:51;33.95;;;16.95;;
43861;SDS011;29510;52.140;5.034;2024-03-08T00:45:52;34.70;;;17.45;;
43861;SDS011;29510;52.140;5.034;2024-03-08T00:55:53;33.63;;;17.33;;
43861;SDS011;29510;52.140;5.034;2024-03-08T01:05:55;37.38;;;17.85;;
43861;SDS011;29510;52.140;5.034;2024-03-08T01:15:55;35.90;;;17.17;;
43861;SDS011;29510;52.140;5.034;2024-03-08T01:25:56;35.30;;;16.60;;
43861;SDS011;29510;52.140;5.034;2024-03-08T01:35:57;34.38;;;17.05;;
43861;SDS011;29510;52.140;5.034;2024-03-08T01:45:58;34.95;;;18.40;;
43861;SDS011;29510;52.140;5.034;2024-03-08T01:56:00;33.28;;;16.63;;
43861;SDS011;29510;52.140;5.034;2024-03-08T02:06:02;38.70;;;18.02;;
43861;SDS011;29510;52.140;5.034;2024-03-08T02:16:05;33.85;;;17.35;;
43861;SDS011;29510;52.140;5.034;2024-03-08T02:26:08;32.13;;;16.73;;
43861;SDS011;29510;52.140;5.034;2024-03-08T02:36:08;38.77;;;17.13;;
43861;SDS011;29510;52.140;5.034;2024-03-08T02:46:09;35.35;;;17.95;;
43861;SDS011;29510;52.140;5.034;2024-03-08T02:56:10;35.63;;;17.98;;
43861;SDS011;29510;52.140;5.034;2024-03-08T03:06:13;33.20;;;18.48;;
43861;SDS011;29510;52.140;5.034;2024-03-08T03:16:17;34.80;;;17.40;;
43861;SDS011;29510;52.140;5.034;2024-03-08T03:26:21;34.95;;;17.80;;
43861;SDS011;29510;52.140;5.034;2024-03-08T03:36:22;33.28;;;18.15;;
43861;SDS011;29510;52.140;5.034;2024-03-08T03:46:24;37.85;;;18.52;;
43861;SDS011;29510;52.140;5.034;2024-03-08T03:56:27;42.22;;;19.85;;
43861;SDS011;29510;52.140;5.034;2024-03-08T04:06:27;37.13;;;19.05;;
43861;SDS011;29510;52.140;5.034;2024-03-08T04:16:28;33.60;;;18.60;;
43861;SDS011;29510;52.140;5.034;2024-03-08T04:26:29;35.77;;;18.53;;
43861;SDS011;29510;52.140;5.034;2024-03-08T04:36:29;39.17;;;19.17;;
43861;SDS011;29510;52.140;5.034;2024-03-08T04:46:30;40.23;;;19.30;;
43861;SDS011;29510;52.140;5.034;2024-03-08T04:56:31;36.35;;;19.05;;
43861;SDS011;29510;52.140;5.034;2024-03-08T05:06:31;35.23;;;18.60;;
43861;SDS011;29510;52.140;5.034;2024-03-08T05:16:33;35.40;;;19.00;;
43861;SDS011;29510;52.140;5.034;2024-03-08T05:26:34;39.33;;;19.77;;
43861;SDS011;29510;52.140;5.034;2024-03-08T05:36:35;35.30;;;19.55;;
43861;SDS011;29510;52.140;5.034;2024-03-08T05:46:36;36.08;;;18.98;;
43861;SDS011;29510;52.140;5.034;2024-03-08T05:56:38;43.28;;;20.00;;
43861;SDS011;29510;52.140;5.034;2024-03-08T06:06:42;38.17;;;18.67;;
43861;SDS011;29510;52.140;5.034;2024-03-08T06:16:42;37.15;;;19.33;;
43861;SDS011;29510;52.140;5.034;2024-03-08T06:26:43;35.35;;;18.63;;
43861;SDS011;29510;52.140;5.034;2024-03-08T06:36:44;32.53;;;18.25;;
43861;SDS011;29510;52.140;5.034;2024-03-08T06:46:44;34.23;;;18.87;;
43861;SDS011;29510;52.140;5.034;2024-03-08T06:56:45;34.35;;;18.88;;
43861;SDS011;29510;52.140;5.034;2024-03-08T07:06:46;37.88;;;19.33;;
43861;SDS011;29510;52.140;5.034;2024-03-08T07:16:47;36.40;;;19.15;;
43861;SDS011;29510;52.140;5.034;2024-03-08T07:26:48;35.55;;;18.75;;
43861;SDS011;29510;52.140;5.034;2024-03-08T07:36:50;33.88;;;18.27;;
43861;SDS011;29510;52.140;5.034;2024-03-08T07:46:50;39.00;;;19.67;;
43861;SDS011;29510;52.140;5.034;2024-03-08T07:56:51;35.40;;;19.00;;
43861;SDS011;29510;52.140;5.034;2024-03-08T08:06:52;39.13;;;20.58;;
43861;SDS011;29510;52.140;5.034;2024-03-08T08:16:54;35.67;;;19.17;;
43861;SDS011;29510;52.140;5.034;2024-03-08T08:26:57;39.42;;;20.08;;
43861;SDS011;29510;52.140;5.034;2024-03-08T08:36:57;39.80;;;20.75;;
43861;SDS011;29510;52.140;5.034;2024-03-08T08:47:00;37.55;;;21.15;;
43861;SDS011;29510;52.140;5.034;2024-03-08T08:57:00;33.38;;;19.70;;
43861;SDS011;29510;52.140;5.034;2024-03-08T09:07:07;33.92;;;19.83;;
43861;SDS011;29510;52.140;5.034;2024-03-08T09:17:08;34.85;;;20.35;;
43861;SDS011;29510;52.140;5.034;2024-03-08T09:27:09;30.92;;;19.70;;
43861;SDS011;29510;52.140;5.034;2024-03-08T09:37:10;34.53;;;19.40;;
43861;SDS011;29510;52.140;5.034;2024-03-08T09:47:11;31.20;;;19.50;;
43861;SDS011;29510;52.140;5.034;2024-03-08T09:57:13;31.85;;;18.63;;
43861;SDS011;29510;52.140;5.034;2024-03-08T10:07:15;29.70;;;18.42;;
43861;SDS011;29510;52.140;5.034;2024-03-08T10:17:16;32.28;;;17.98;;
43861;SDS011;29510;52.140;5.034;2024-03-08T10:27:17;31.85;;;18.77;;
43861;SDS011;29510;52.140;5.034;2024-03-08T10:37:20;30.85;;;17.92;;
43861;SDS011;29510;52.140;5.034;2024-03-08T10:47:26;26.40;;;17.42;;
43861;SDS011;29510;52.140;5.034;2024-03-08T10:57:30;28.88;;;18.38;;
43861;SDS011;29510;52.140;5.034;2024-03-08T11:07:34;25.02;;;15.93;;
43861;SDS011;29510;52.140;5.034;2024-03-08T11:27:39;25.40;;;17.13;;
43861;SDS011;29510;52.140;5.034;2024-03-08T11:37:53;23.73;;;15.20;;
43861;SDS011;29510;52.140;5.034;2024-03-08T11:47:54;25.35;;;15.52;;
43861;SDS011;29510;52.140;5.034;2024-03-08T11:58:01;23.08;;;15.60;;
43861;SDS011;29510;52.140;5.034;2024-03-08T12:08:03;22.40;;;15.57;;
43861;SDS011;29510;52.140;5.034;2024-03-08T12:18:07;20.73;;;13.70;;
43861;SDS011;29510;52.140;5.034;2024-03-08T12:28:11;21.17;;;12.47;;
43861;SDS011;29510;52.140;5.034;2024-03-08T12:38:13;17.55;;;11.88;;
43861;SDS011;29510;52.140;5.034;2024-03-08T12:48:13;16.02;;;11.63;;
43861;SDS011;29510;52.140;5.034;2024-03-08T12:58:15;18.48;;;12.45;;
43861;SDS011;29510;52.140;5.034;2024-03-08T13:08:16;17.30;;;12.55;;
43861;SDS011;29510;52.140;5.034;2024-03-08T13:18:18;18.48;;;12.90;;
43861;SDS011;29510;52.140;5.034;2024-03-08T13:28:18;19.92;;;13.32;;
43861;SDS011;29510;52.140;5.034;2024-03-08T13:38:23;18.67;;;13.10;;
43861;SDS011;29510;52.140;5.034;2024-03-08T13:48:24;18.80;;;12.93;;
43861;SDS011;29510;52.140;5.034;2024-03-08T13:58:25;18.52;;;12.95;;
43861;SDS011;29510;52.140;5.034;2024-03-08T14:08:26;19.65;;;15.00;;
43861;SDS011;29510;52.140;5.034;2024-03-08T14:18:27;22.00;;;13.55;;
43861;SDS011;29510;52.140;5.034;2024-03-08T14:28:29;21.98;;;14.65;;
43861;SDS011;29510;52.140;5.034;2024-03-08T14:38:29;18.27;;;14.00;;
43861;SDS011;29510;52.140;5.034;2024-03-08T14:48:30;21.27;;;15.05;;
43861;SDS011;29510;52.140;5.034;2024-03-08T14:58:30;22.08;;;15.15;;
43861;SDS011;29510;52.140;5.034;2024-03-08T15:08:32;22.08;;;14.38;;
43861;SDS011;29510;52.140;5.034;2024-03-08T15:18:33;22.17;;;14.40;;
43861;SDS011;29510;52.140;5.034;2024-03-08T15:28:36;22.50;;;14.45;;
43861;SDS011;29510;52.140;5.034;2024-03-08T15:38:37;21.25;;;14.27;;
43861;SDS011;29510;52.140;5.034;2024-03-08T15:48:38;22.83;;;14.90;;
43861;SDS011;29510;52.140;5.034;2024-03-08T15:58:41;22.25;;;14.80;;
43861;SDS011;29510;52.140;5.034;2024-03-08T16:08:42;23.60;;;15.00;;
43861;SDS011;29510;52.140;5.034;2024-03-08T16:18:43;22.57;;;14.50;;
43861;SDS011;29510;52.140;5.034;2024-03-08T16:28:44;24.00;;;14.93;;
43861;SDS011;29510;52.140;5.034;2024-03-08T16:38:44;23.70;;;14.95;;
43861;SDS011;29510;52.140;5.034;2024-03-08T16:48:46;24.23;;;14.90;;
43861;SDS011;29510;52.140;5.034;2024-03-08T16:58:48;22.60;;;14.45;;
43861;SDS011;29510;52.140;5.034;2024-03-08T17:08:49;24.02;;;14.43;;
43861;SDS011;29510;52.140;5.034;2024-03-08T17:18:49;21.98;;;14.88;;
43861;SDS011;29510;52.140;5.034;2024-03-08T17:28:50;21.27;;;14.13;;
43861;SDS011;29510;52.140;5.034;2024-03-08T17:38:51;23.27;;;14.93;;
43861;SDS011;29510;52.140;5.034;2024-03-08T17:48:52;24.08;;;15.43;;
43861;SDS011;29510;52.140;5.034;2024-03-08T17:58:53;22.75;;;15.35;;
43861;SDS011;29510;52.140;5.034;2024-03-08T18:08:54;27.45;;;15.90;;
43861;SDS011;29510;52.140;5.034;2024-03-08T18:18:55;26.33;;;16.63;;
43861;SDS011;29510;52.140;5.034;2024-03-08T18:28:55;27.63;;;17.10;;
43861;SDS011;29510;52.140;5.034;2024-03-08T18:38:57;28.65;;;17.55;;
43861;SDS011;29510;52.140;5.034;2024-03-08T18:48:58;29.02;;;16.95;;
43861;SDS011;29510;52.140;5.034;2024-03-08T18:58:59;30.33;;;18.17;;
43861;SDS011;29510;52.140;5.034;2024-03-08T19:09:00;29.10;;;18.55;;
43861;SDS011;29510;52.140;5.034;2024-03-08T19:19:04;31.48;;;17.48;;
43861;SDS011;29510;52.140;5.034;2024-03-08T19:29:05;32.38;;;18.45;;
43861;SDS011;29510;52.140;5.034;2024-03-08T19:39:06;28.23;;;17.05;;
43861;SDS011;29510;52.140;5.034;2024-03-08T19:49:10;31.65;;;17.63;;
43861;SDS011;29510;52.140;5.034;2024-03-08T19:59:11;31.23;;;18.43;;
43861;SDS011;29510;52.140;5.034;2024-03-08T20:09:11;32.65;;;18.80;;
43861;SDS011;29510;52.140;5.034;2024-03-08T20:19:12;34.10;;;19.20;;
43861;SDS011;29510;52.140;5.034;2024-03-08T20:29:13;33.72;;;17.50;;
43861;SDS011;29510;52.140;5.034;2024-03-08T20:39:14;29.88;;;17.55;;
43861;SDS011;29510;52.140;5.034;2024-03-08T20:49:15;34.45;;;19.27;;
43861;SDS011;29510;52.140;5.034;2024-03-08T20:59:19;30.02;;;18.15;;
43861;SDS011;29510;52.140;5.034;2024-03-08T21:09:20;35.65;;;19.23;;
43861;SDS011;29510;52.140;5.034;2024-03-08T21:19:23;35.13;;;19.13;;
43861;SDS011;29510;52.140;5.034;2024-03-08T21:29:24;35.10;;;19.92;;
43861;SDS011;29510;52.140;5.034;2024-03-08T21:39:25;37.30;;;19.73;;
43861;SDS011;29510;52.140;5.034;2024-03-08T21:49:28;33.13;;;18.23;;
43861;SDS011;29510;52.140;5.034;2024-03-08T21:59:28;34.85;;;19.30;;
43861;SDS011;29510;52.140;5.034;2024-03-08T22:09:32;37.42;;;19.80;;
43861;SDS011;29510;52.140;5.034;2024-03-08T22:19:33;36.60;;;18.95;;
43861;SDS011;29510;52.140;5.034;2024-03-08T22:29:33;37.67;;;19.90;;
43861;SDS011;29510;52.140;5.034;2024-03-08T22:39:34;34.40;;;19.10;;
43861;SDS011;29510;52.140;5.034;2024-03-08T22:49:35;33.75;;;19.23;;
43861;SDS011;29510;52.140;5.034;2024-03-08T22:59:36;39.03;;;20.48;;
43861;SDS011;29510;52.140;5.034;2024-03-08T23:09:37;36.95;;;19.77;;
43861;SDS011;29510;52.140;5.034;2024-03-08T23:19:37;39.92;;;20.85;;
43861;SDS011;29510;52.140;5.034;2024-03-08T23:29:38;37.53;;;19.43;;
43861;SDS011;29510;52.140;5.034;2024-03-08T23:39:39;40.33;;;20.88;;
43861;SDS011;29510;52.140;5.034;2024-03-08T23:49:40;36.95;;;19.30;;
43861;SDS011;29510;52.140;5.034;2024-03-08T23:59:40;37.17;;;19.45;;
